sensor_id;sensor_type;location;lat;lon;timestamp;P1;durP1;ratioP1;P2;durP2;ratioP2
43628;SDS011;56545;48.224;11.678;2023-02-01T00:01:54;7.55;;;3.25;;
43628;SDS011;56545;48.224;11.678;2023-02-01T00:04:20;8.50;;;3.90;;
43628;SDS011;56545;48.224;11.678;2023-02-01T00:06:46;8.23;;;3.03;;
43628;SDS011;56545;48.224;11.678;2023-02-01T00:09:12;7.43;;;3.22;;
43628;SDS011;56545;48.224;11.678;2023-02-01T00:11:39;7.07;;;3.05;;
43628;SDS011;56545;48.224;11.678;2023-02-01T00:14:04;7.93;;;3.55;;
43628;SDS011;56545;48.224;11.678;2023-02-01T00:16:31;6.55;;;2.75;;
43628;SDS011;56545;48.224;11.678;2023-02-01T00:18:59;6.15;;;3.00;;
43628;SDS011;56545;48.224;11.678;2023-02-01T00:21:27;8.40;;;3.60;;
43628;SDS011;56545;48.224;11.678;2023-02-01T00:23:53;7.35;;;3.28;;
43628;SDS011;56545;48.224;11.678;2023-02-01T00:26:22;7.20;;;3.08;;
43628;SDS011;56545;48.224;11.678;2023-02-01T00:29:03;6.60;;;3.15;;
43628;SDS011;56545;48.224;11.678;2023-02-01T00:31:30;7.18;;;3.17;;
43628;SDS011;56545;48.224;11.678;2023-02-01T00:33:57;6.07;;;2.70;;
43628;SDS011;56545;48.224;11.678;2023-02-01T00:36:23;6.15;;;3.10;;
43628;SDS011;56545;48.224;11.678;2023-02-01T00:38:49;6.43;;;3.05;;
43628;SDS011;56545;48.224;11.678;2023-02-01T00:41:16;6.40;;;2.78;;
43628;SDS011;56545;48.224;11.678;2023-02-01T00:43:43;7.20;;;3.00;;
43628;SDS011;56545;48.224;11.678;2023-02-01T00:46:10;6.70;;;3.13;;
43628;SDS011;56545;48.224;11.678;2023-02-01T00:48:37;6.53;;;3.40;;
43628;SDS011;56545;48.224;11.678;2023-02-01T00:51:06;5.85;;;3.10;;
43628;SDS011;56545;48.224;11.678;2023-02-01T00:53:34;6.57;;;2.88;;
43628;SDS011;56545;48.224;11.678;2023-02-01T00:56:00;6.45;;;2.83;;
43628;SDS011;56545;48.224;11.678;2023-02-01T00:58:26;6.60;;;2.70;;
43628;SDS011;56545;48.224;11.678;2023-02-01T01:01:02;7.28;;;3.13;;
43628;SDS011;56545;48.224;11.678;2023-02-01T01:03:38;7.35;;;3.22;;
43628;SDS011;56545;48.224;11.678;2023-02-01T01:06:06;6.97;;;2.95;;
43628;SDS011;56545;48.224;11.678;2023-02-01T01:08:34;6.28;;;3.13;;
43628;SDS011;56545;48.224;11.678;2023-02-01T01:11:08;6.85;;;3.40;;
43628;SDS011;56545;48.224;11.678;2023-02-01T01:13:38;8.05;;;3.38;;
43628;SDS011;56545;48.224;11.678;2023-02-01T01:16:05;7.68;;;3.63;;
43628;SDS011;56545;48.224;11.678;2023-02-01T01:18:32;8.35;;;4.00;;
43628;SDS011;56545;48.224;11.678;2023-02-01T01:20:59;8.30;;;3.88;;
43628;SDS011;56545;48.224;11.678;2023-02-01T01:23:25;9.20;;;3.88;;
43628;SDS011;56545;48.224;11.678;2023-02-01T01:25:52;6.82;;;3.83;;
43628;SDS011;56545;48.224;11.678;2023-02-01T01:28:18;7.20;;;4.10;;
43628;SDS011;56545;48.224;11.678;2023-02-01T01:30:44;7.18;;;4.10;;
43628;SDS011;56545;48.224;11.678;2023-02-01T01:33:10;7.70;;;4.00;;
43628;SDS011;56545;48.224;11.678;2023-02-01T01:35:36;8.32;;;4.32;;
43628;SDS011;56545;48.224;11.678;2023-02-01T01:38:02;9.35;;;4.15;;
43628;SDS011;56545;48.224;11.678;2023-02-01T01:40:29;8.55;;;4.50;;
43628;SDS011;56545;48.224;11.678;2023-02-01T01:42:56;7.40;;;4.07;;
43628;SDS011;56545;48.224;11.678;2023-02-01T01:48:03;9.18;;;4.28;;
43628;SDS011;56545;48.224;11.678;2023-02-01T01:53:33;8.82;;;4.30;;
43628;SDS011;56545;48.224;11.678;2023-02-01T01:56:05;7.18;;;3.60;;
43628;SDS011;56545;48.224;11.678;2023-02-01T01:58:31;6.63;;;3.97;;
43628;SDS011;56545;48.224;11.678;2023-02-01T02:00:59;6.85;;;3.95;;
43628;SDS011;56545;48.224;11.678;2023-02-01T02:03:26;8.00;;;3.75;;
43628;SDS011;56545;48.224;11.678;2023-02-01T02:05:58;7.88;;;4.28;;
43628;SDS011;56545;48.224;11.678;2023-02-01T02:08:26;7.95;;;4.10;;
43628;SDS011;56545;48.224;11.678;2023-02-01T02:10:53;7.57;;;4.07;;
43628;SDS011;56545;48.224;11.678;2023-02-01T02:13:26;7.45;;;3.92;;
43628;SDS011;56545;48.224;11.678;2023-02-01T02:18:57;9.80;;;4.40;;
43628;SDS011;56545;48.224;11.678;2023-02-01T02:22:05;8.18;;;4.28;;
43628;SDS011;56545;48.224;11.678;2023-02-01T02:24:44;8.32;;;4.45;;
43628;SDS011;56545;48.224;11.678;2023-02-01T02:27:51;9.02;;;4.40;;
43628;SDS011;56545;48.224;11.678;2023-02-01T02:30:44;8.35;;;4.30;;
43628;SDS011;56545;48.224;11.678;2023-02-01T02:33:41;9.23;;;4.82;;
43628;SDS011;56545;48.224;11.678;2023-02-01T02:45:28;7.70;;;4.28;;
43628;SDS011;56545;48.224;11.678;2023-02-01T02:51:01;9.13;;;4.43;;
43628;SDS011;56545;48.224;11.678;2023-02-01T02:56:43;7.88;;;4.15;;
43628;SDS011;56545;48.224;11.678;2023-02-01T02:59:28;7.47;;;4.10;;
43628;SDS011;56545;48.224;11.678;2023-02-01T03:02:13;10.05;;;4.25;;
43628;SDS011;56545;48.224;11.678;2023-02-01T03:04:59;7.93;;;4.30;;
43628;SDS011;56545;48.224;11.678;2023-02-01T03:10:35;8.82;;;4.05;;
43628;SDS011;56545;48.224;11.678;2023-02-01T03:13:20;8.05;;;4.07;;
43628;SDS011;56545;48.224;11.678;2023-02-01T03:21:29;8.68;;;4.13;;
43628;SDS011;56545;48.224;11.678;2023-02-01T03:26:43;7.78;;;4.10;;
43628;SDS011;56545;48.224;11.678;2023-02-01T03:29:19;8.00;;;4.25;;
43628;SDS011;56545;48.224;11.678;2023-02-01T03:31:50;7.68;;;3.78;;
43628;SDS011;56545;48.224;11.678;2023-02-01T03:34:16;6.95;;;3.88;;
43628;SDS011;56545;48.224;11.678;2023-02-01T03:36:50;7.75;;;3.85;;
43628;SDS011;56545;48.224;11.678;2023-02-01T03:39:27;6.70;;;3.40;;
43628;SDS011;56545;48.224;11.678;2023-02-01T03:42:01;6.95;;;3.83;;
43628;SDS011;56545;48.224;11.678;2023-02-01T03:44:31;6.70;;;3.33;;
43628;SDS011;56545;48.224;11.678;2023-02-01T03:47:03;7.00;;;3.70;;
43628;SDS011;56545;48.224;11.678;2023-02-01T03:49:38;7.70;;;3.72;;
43628;SDS011;56545;48.224;11.678;2023-02-01T03:52:14;9.07;;;3.95;;
43628;SDS011;56545;48.224;11.678;2023-02-01T03:54:46;8.07;;;3.67;;
43628;SDS011;56545;48.224;11.678;2023-02-01T03:57:13;7.53;;;3.90;;
43628;SDS011;56545;48.224;11.678;2023-02-01T03:59:44;8.57;;;3.63;;
43628;SDS011;56545;48.224;11.678;2023-02-01T04:02:11;7.50;;;3.40;;
43628;SDS011;56545;48.224;11.678;2023-02-01T04:04:37;7.00;;;3.42;;
43628;SDS011;56545;48.224;11.678;2023-02-01T04:07:03;7.03;;;3.30;;
43628;SDS011;56545;48.224;11.678;2023-02-01T04:09:29;7.35;;;3.40;;
43628;SDS011;56545;48.224;11.678;2023-02-01T04:11:55;6.00;;;3.17;;
43628;SDS011;56545;48.224;11.678;2023-02-01T04:14:21;7.32;;;3.35;;
43628;SDS011;56545;48.224;11.678;2023-02-01T04:16:47;6.53;;;3.17;;
43628;SDS011;56545;48.224;11.678;2023-02-01T04:19:13;6.72;;;3.22;;
43628;SDS011;56545;48.224;11.678;2023-02-01T04:21:39;7.15;;;3.75;;
43628;SDS011;56545;48.224;11.678;2023-02-01T04:24:05;7.38;;;3.45;;
43628;SDS011;56545;48.224;11.678;2023-02-01T04:26:31;6.68;;;2.78;;
43628;SDS011;56545;48.224;11.678;2023-02-01T04:28:57;7.43;;;3.53;;
43628;SDS011;56545;48.224;11.678;2023-02-01T04:31:23;7.13;;;3.20;;
43628;SDS011;56545;48.224;11.678;2023-02-01T04:33:52;9.30;;;3.40;;
43628;SDS011;56545;48.224;11.678;2023-02-01T04:36:20;6.70;;;3.40;;
43628;SDS011;56545;48.224;11.678;2023-02-01T04:38:50;5.97;;;3.30;;
43628;SDS011;56545;48.224;11.678;2023-02-01T04:41:16;7.32;;;3.00;;
43628;SDS011;56545;48.224;11.678;2023-02-01T04:43:44;6.18;;;3.25;;
43628;SDS011;56545;48.224;11.678;2023-02-01T04:46:13;6.63;;;3.05;;
43628;SDS011;56545;48.224;11.678;2023-02-01T04:48:39;7.68;;;3.30;;
43628;SDS011;56545;48.224;11.678;2023-02-01T04:51:05;7.40;;;3.42;;
43628;SDS011;56545;48.224;11.678;2023-02-01T04:53:31;7.38;;;3.78;;
43628;SDS011;56545;48.224;11.678;2023-02-01T04:55:57;6.32;;;3.47;;
43628;SDS011;56545;48.224;11.678;2023-02-01T04:58:23;6.78;;;3.50;;
43628;SDS011;56545;48.224;11.678;2023-02-01T05:00:49;6.47;;;3.28;;
43628;SDS011;56545;48.224;11.678;2023-02-01T05:03:16;5.38;;;3.10;;
43628;SDS011;56545;48.224;11.678;2023-02-01T05:05:42;7.90;;;3.85;;
43628;SDS011;56545;48.224;11.678;2023-02-01T05:08:08;6.30;;;3.10;;
43628;SDS011;56545;48.224;11.678;2023-02-01T05:10:34;6.55;;;3.35;;
43628;SDS011;56545;48.224;11.678;2023-02-01T05:13:00;7.00;;;3.63;;
43628;SDS011;56545;48.224;11.678;2023-02-01T05:15:44;6.07;;;3.22;;
43628;SDS011;56545;48.224;11.678;2023-02-01T05:18:11;8.05;;;3.42;;
43628;SDS011;56545;48.224;11.678;2023-02-01T05:20:37;7.63;;;3.83;;
43628;SDS011;56545;48.224;11.678;2023-02-01T05:23:03;8.73;;;3.80;;
43628;SDS011;56545;48.224;11.678;2023-02-01T05:25:30;7.30;;;3.83;;
43628;SDS011;56545;48.224;11.678;2023-02-01T05:27:56;7.75;;;3.60;;
43628;SDS011;56545;48.224;11.678;2023-02-01T05:30:22;5.97;;;3.20;;
43628;SDS011;56545;48.224;11.678;2023-02-01T05:32:51;7.32;;;3.88;;
43628;SDS011;56545;48.224;11.678;2023-02-01T05:35:17;7.10;;;3.67;;
43628;SDS011;56545;48.224;11.678;2023-02-01T05:37:44;7.82;;;3.70;;
43628;SDS011;56545;48.224;11.678;2023-02-01T05:40:10;7.72;;;3.97;;
43628;SDS011;56545;48.224;11.678;2023-02-01T05:42:36;7.43;;;3.28;;
43628;SDS011;56545;48.224;11.678;2023-02-01T05:45:02;8.60;;;4.00;;
43628;SDS011;56545;48.224;11.678;2023-02-01T05:47:30;9.68;;;4.35;;
43628;SDS011;56545;48.224;11.678;2023-02-01T05:49:56;7.55;;;3.78;;
43628;SDS011;56545;48.224;11.678;2023-02-01T05:52:22;8.07;;;4.38;;
43628;SDS011;56545;48.224;11.678;2023-02-01T05:54:48;8.50;;;4.78;;
43628;SDS011;56545;48.224;11.678;2023-02-01T05:57:14;8.35;;;3.83;;
43628;SDS011;56545;48.224;11.678;2023-02-01T05:59:40;6.93;;;4.00;;
43628;SDS011;56545;48.224;11.678;2023-02-01T06:02:07;7.05;;;4.15;;
43628;SDS011;56545;48.224;11.678;2023-02-01T06:04:33;9.18;;;4.03;;
43628;SDS011;56545;48.224;11.678;2023-02-01T06:06:59;6.35;;;3.63;;
43628;SDS011;56545;48.224;11.678;2023-02-01T06:09:25;7.20;;;3.83;;
43628;SDS011;56545;48.224;11.678;2023-02-01T06:11:51;7.97;;;4.10;;
43628;SDS011;56545;48.224;11.678;2023-02-01T06:14:17;7.68;;;4.05;;
43628;SDS011;56545;48.224;11.678;2023-02-01T06:16:42;10.02;;;4.30;;
43628;SDS011;56545;48.224;11.678;2023-02-01T06:19:10;7.45;;;3.90;;
43628;SDS011;56545;48.224;11.678;2023-02-01T06:21:36;7.95;;;3.80;;
43628;SDS011;56545;48.224;11.678;2023-02-01T06:24:02;7.97;;;4.00;;
43628;SDS011;56545;48.224;11.678;2023-02-01T06:26:28;7.38;;;3.88;;
43628;SDS011;56545;48.224;11.678;2023-02-01T06:28:54;8.02;;;4.30;;
43628;SDS011;56545;48.224;11.678;2023-02-01T06:31:21;8.27;;;4.03;;
43628;SDS011;56545;48.224;11.678;2023-02-01T06:33:48;7.22;;;3.95;;
43628;SDS011;56545;48.224;11.678;2023-02-01T06:36:14;10.38;;;4.50;;
43628;SDS011;56545;48.224;11.678;2023-02-01T06:38:45;7.95;;;3.90;;
43628;SDS011;56545;48.224;11.678;2023-02-01T06:41:12;7.93;;;4.55;;
43628;SDS011;56545;48.224;11.678;2023-02-01T06:43:38;7.90;;;4.60;;
43628;SDS011;56545;48.224;11.678;2023-02-01T06:46:05;9.30;;;4.95;;
43628;SDS011;56545;48.224;11.678;2023-02-01T06:48:33;7.65;;;4.07;;
43628;SDS011;56545;48.224;11.678;2023-02-01T06:50:59;11.57;;;5.85;;
43628;SDS011;56545;48.224;11.678;2023-02-01T06:53:25;9.98;;;5.03;;
43628;SDS011;56545;48.224;11.678;2023-02-01T06:55:52;15.13;;;7.35;;
43628;SDS011;56545;48.224;11.678;2023-02-01T06:58:31;8.38;;;4.45;;
43628;SDS011;56545;48.224;11.678;2023-02-01T07:03:34;7.05;;;3.55;;
43628;SDS011;56545;48.224;11.678;2023-02-01T07:06:00;7.15;;;3.70;;
43628;SDS011;56545;48.224;11.678;2023-02-01T07:08:27;7.90;;;3.38;;
43628;SDS011;56545;48.224;11.678;2023-02-01T07:10:54;6.32;;;3.45;;
43628;SDS011;56545;48.224;11.678;2023-02-01T07:13:20;10.10;;;3.67;;
43628;SDS011;56545;48.224;11.678;2023-02-01T07:15:46;6.90;;;3.50;;
43628;SDS011;56545;48.224;11.678;2023-02-01T07:18:12;6.20;;;3.47;;
43628;SDS011;56545;48.224;11.678;2023-02-01T07:20:39;8.18;;;3.53;;
43628;SDS011;56545;48.224;11.678;2023-02-01T07:23:05;7.45;;;3.47;;
43628;SDS011;56545;48.224;11.678;2023-02-01T07:25:34;7.32;;;3.50;;
43628;SDS011;56545;48.224;11.678;2023-02-01T07:28:00;7.45;;;3.45;;
43628;SDS011;56545;48.224;11.678;2023-02-01T07:30:26;7.40;;;3.15;;
43628;SDS011;56545;48.224;11.678;2023-02-01T07:32:52;5.60;;;2.78;;
43628;SDS011;56545;48.224;11.678;2023-02-01T07:35:18;6.53;;;3.00;;
43628;SDS011;56545;48.224;11.678;2023-02-01T07:37:43;7.80;;;3.22;;
43628;SDS011;56545;48.224;11.678;2023-02-01T07:40:09;6.38;;;3.03;;
43628;SDS011;56545;48.224;11.678;2023-02-01T07:42:36;6.65;;;3.20;;
43628;SDS011;56545;48.224;11.678;2023-02-01T07:45:02;6.13;;;2.70;;
43628;SDS011;56545;48.224;11.678;2023-02-01T07:47:29;6.38;;;3.40;;
43628;SDS011;56545;48.224;11.678;2023-02-01T07:49:54;10.50;;;4.30;;
43628;SDS011;56545;48.224;11.678;2023-02-01T07:52:20;7.65;;;3.42;;
43628;SDS011;56545;48.224;11.678;2023-02-01T07:54:46;5.55;;;2.83;;
43628;SDS011;56545;48.224;11.678;2023-02-01T07:57:12;5.18;;;2.60;;
43628;SDS011;56545;48.224;11.678;2023-02-01T07:59:38;6.32;;;2.53;;
43628;SDS011;56545;48.224;11.678;2023-02-01T08:02:24;4.95;;;2.22;;
43628;SDS011;56545;48.224;11.678;2023-02-01T08:04:50;5.82;;;2.38;;
43628;SDS011;56545;48.224;11.678;2023-02-01T08:07:16;5.00;;;2.40;;
43628;SDS011;56545;48.224;11.678;2023-02-01T08:09:42;5.43;;;2.40;;
43628;SDS011;56545;48.224;11.678;2023-02-01T08:12:08;5.95;;;2.30;;
43628;SDS011;56545;48.224;11.678;2023-02-01T08:14:34;4.95;;;2.42;;
43628;SDS011;56545;48.224;11.678;2023-02-01T08:16:59;5.88;;;2.65;;
43628;SDS011;56545;48.224;11.678;2023-02-01T08:19:25;5.53;;;2.15;;
43628;SDS011;56545;48.224;11.678;2023-02-01T08:21:51;5.45;;;1.67;;
43628;SDS011;56545;48.224;11.678;2023-02-01T08:24:17;5.10;;;2.17;;
43628;SDS011;56545;48.224;11.678;2023-02-01T08:26:43;5.28;;;2.08;;
43628;SDS011;56545;48.224;11.678;2023-02-01T08:29:09;4.35;;;1.73;;
43628;SDS011;56545;48.224;11.678;2023-02-01T08:31:37;5.28;;;2.00;;
43628;SDS011;56545;48.224;11.678;2023-02-01T08:34:05;5.63;;;2.20;;
43628;SDS011;56545;48.224;11.678;2023-02-01T08:36:33;17.25;;;8.90;;
43628;SDS011;56545;48.224;11.678;2023-02-01T08:39:00;5.70;;;2.20;;
43628;SDS011;56545;48.224;11.678;2023-02-01T08:41:27;5.93;;;2.35;;
43628;SDS011;56545;48.224;11.678;2023-02-01T08:43:55;4.53;;;2.00;;
43628;SDS011;56545;48.224;11.678;2023-02-01T08:46:22;4.65;;;2.10;;
43628;SDS011;56545;48.224;11.678;2023-02-01T08:48:48;4.80;;;2.10;;
43628;SDS011;56545;48.224;11.678;2023-02-01T08:51:16;5.75;;;2.05;;
43628;SDS011;56545;48.224;11.678;2023-02-01T08:53:43;6.43;;;2.00;;
43628;SDS011;56545;48.224;11.678;2023-02-01T08:56:10;4.38;;;1.67;;
43628;SDS011;56545;48.224;11.678;2023-02-01T08:58:38;5.13;;;2.10;;
43628;SDS011;56545;48.224;11.678;2023-02-01T09:01:05;4.15;;;1.73;;
43628;SDS011;56545;48.224;11.678;2023-02-01T09:03:35;3.85;;;1.50;;
43628;SDS011;56545;48.224;11.678;2023-02-01T09:06:05;5.78;;;2.03;;
43628;SDS011;56545;48.224;11.678;2023-02-01T09:08:33;4.57;;;2.08;;
43628;SDS011;56545;48.224;11.678;2023-02-01T09:11:00;4.35;;;1.70;;
43628;SDS011;56545;48.224;11.678;2023-02-01T09:13:28;5.30;;;2.00;;
43628;SDS011;56545;48.224;11.678;2023-02-01T09:15:54;5.90;;;2.10;;
43628;SDS011;56545;48.224;11.678;2023-02-01T09:18:20;4.30;;;1.80;;
43628;SDS011;56545;48.224;11.678;2023-02-01T09:20:46;4.60;;;1.83;;
43628;SDS011;56545;48.224;11.678;2023-02-01T09:23:12;5.85;;;2.05;;
43628;SDS011;56545;48.224;11.678;2023-02-01T09:25:38;4.60;;;1.80;;
43628;SDS011;56545;48.224;11.678;2023-02-01T09:28:04;6.63;;;1.88;;
43628;SDS011;56545;48.224;11.678;2023-02-01T09:30:33;4.18;;;1.92;;
43628;SDS011;56545;48.224;11.678;2023-02-01T09:33:01;5.95;;;2.20;;
43628;SDS011;56545;48.224;11.678;2023-02-01T09:35:27;4.43;;;1.70;;
43628;SDS011;56545;48.224;11.678;2023-02-01T09:37:53;4.70;;;1.98;;
43628;SDS011;56545;48.224;11.678;2023-02-01T09:40:19;6.13;;;1.60;;
43628;SDS011;56545;48.224;11.678;2023-02-01T09:45:39;3.95;;;1.80;;
43628;SDS011;56545;48.224;11.678;2023-02-01T09:48:27;5.15;;;2.10;;
43628;SDS011;56545;48.224;11.678;2023-02-01T09:50:57;7.93;;;2.08;;
43628;SDS011;56545;48.224;11.678;2023-02-01T09:56:00;10.48;;;5.68;;
43628;SDS011;56545;48.224;11.678;2023-02-01T09:58:47;5.35;;;2.60;;
43628;SDS011;56545;48.224;11.678;2023-02-01T10:01:22;4.97;;;1.98;;
43628;SDS011;56545;48.224;11.678;2023-02-01T10:03:50;5.28;;;2.30;;
43628;SDS011;56545;48.224;11.678;2023-02-01T10:09:04;4.63;;;1.90;;
43628;SDS011;56545;48.224;11.678;2023-02-01T10:14:20;3.83;;;1.88;;
43628;SDS011;56545;48.224;11.678;2023-02-01T10:22:17;5.60;;;2.20;;
43628;SDS011;56545;48.224;11.678;2023-02-01T10:25:41;5.22;;;1.80;;
43628;SDS011;56545;48.224;11.678;2023-02-01T10:28:13;5.60;;;1.90;;
43628;SDS011;56545;48.224;11.678;2023-02-01T10:30:43;5.20;;;2.00;;
43628;SDS011;56545;48.224;11.678;2023-02-01T10:33:18;6.30;;;2.28;;
43628;SDS011;56545;48.224;11.678;2023-02-01T10:36:14;6.80;;;2.10;;
43628;SDS011;56545;48.224;11.678;2023-02-01T10:38:44;6.43;;;2.50;;
43628;SDS011;56545;48.224;11.678;2023-02-01T10:41:12;7.72;;;2.80;;
43628;SDS011;56545;48.224;11.678;2023-02-01T10:43:44;5.90;;;2.42;;
43628;SDS011;56545;48.224;11.678;2023-02-01T10:46:13;6.85;;;2.28;;
43628;SDS011;56545;48.224;11.678;2023-02-01T10:48:39;4.88;;;2.05;;
43628;SDS011;56545;48.224;11.678;2023-02-01T10:51:06;5.18;;;2.20;;
43628;SDS011;56545;48.224;11.678;2023-02-01T10:53:56;5.43;;;2.10;;
43628;SDS011;56545;48.224;11.678;2023-02-01T10:56:28;4.85;;;2.15;;
43628;SDS011;56545;48.224;11.678;2023-02-01T10:59:01;4.95;;;1.90;;
43628;SDS011;56545;48.224;11.678;2023-02-01T11:01:39;4.28;;;2.00;;
43628;SDS011;56545;48.224;11.678;2023-02-01T11:04:09;4.10;;;1.70;;
43628;SDS011;56545;48.224;11.678;2023-02-01T11:06:39;4.85;;;1.85;;
43628;SDS011;56545;48.224;11.678;2023-02-01T11:11:33;7.30;;;2.20;;
43628;SDS011;56545;48.224;11.678;2023-02-01T11:19:45;6.22;;;2.47;;
43628;SDS011;56545;48.224;11.678;2023-02-01T11:22:31;5.22;;;2.13;;
43628;SDS011;56545;48.224;11.678;2023-02-01T11:24:57;4.28;;;2.20;;
43628;SDS011;56545;48.224;11.678;2023-02-01T11:27:26;13.90;;;6.82;;
43628;SDS011;56545;48.224;11.678;2023-02-01T11:29:55;6.90;;;2.42;;
43628;SDS011;56545;48.224;11.678;2023-02-01T11:32:24;7.05;;;2.53;;
43628;SDS011;56545;48.224;11.678;2023-02-01T11:34:52;6.18;;;2.75;;
43628;SDS011;56545;48.224;11.678;2023-02-01T11:39:53;6.20;;;2.88;;
43628;SDS011;56545;48.224;11.678;2023-02-01T11:42:21;6.78;;;2.55;;
43628;SDS011;56545;48.224;11.678;2023-02-01T11:44:47;5.63;;;2.15;;
43628;SDS011;56545;48.224;11.678;2023-02-01T11:49:53;5.72;;;2.25;;
43628;SDS011;56545;48.224;11.678;2023-02-01T12:03:41;6.05;;;2.90;;
43628;SDS011;56545;48.224;11.678;2023-02-01T12:09:10;8.90;;;3.30;;
43628;SDS011;56545;48.224;11.678;2023-02-01T12:12:08;6.68;;;3.03;;
43628;SDS011;56545;48.224;11.678;2023-02-01T12:15:03;6.30;;;3.00;;
43628;SDS011;56545;48.224;11.678;2023-02-01T12:38:51;7.65;;;2.97;;
43628;SDS011;56545;48.224;11.678;2023-02-01T12:44:39;8.20;;;2.30;;
43628;SDS011;56545;48.224;11.678;2023-02-01T12:46:45;6.55;;;2.72;;
43628;SDS011;56545;48.224;11.678;2023-02-01T12:49:16;9.38;;;2.95;;
43628;SDS011;56545;48.224;11.678;2023-02-01T12:52:02;7.55;;;2.58;;
43628;SDS011;56545;48.224;11.678;2023-02-01T12:54:36;7.57;;;3.17;;
43628;SDS011;56545;48.224;11.678;2023-02-01T12:57:15;9.60;;;2.78;;
43628;SDS011;56545;48.224;11.678;2023-02-01T12:59:53;9.82;;;2.60;;
43628;SDS011;56545;48.224;11.678;2023-02-01T13:02:29;8.43;;;2.50;;
43628;SDS011;56545;48.224;11.678;2023-02-01T13:05:40;7.05;;;2.90;;
43628;SDS011;56545;48.224;11.678;2023-02-01T13:08:22;7.20;;;2.40;;
43628;SDS011;56545;48.224;11.678;2023-02-01T13:10:54;7.43;;;2.60;;
43628;SDS011;56545;48.224;11.678;2023-02-01T13:14:02;8.35;;;2.30;;
43628;SDS011;56545;48.224;11.678;2023-02-01T13:16:48;7.22;;;2.53;;
43628;SDS011;56545;48.224;11.678;2023-02-01T13:19:26;6.78;;;2.65;;
43628;SDS011;56545;48.224;11.678;2023-02-01T13:21:56;9.27;;;2.50;;
43628;SDS011;56545;48.224;11.678;2023-02-01T13:24:31;6.90;;;2.30;;
43628;SDS011;56545;48.224;11.678;2023-02-01T13:27:04;8.48;;;2.60;;
43628;SDS011;56545;48.224;11.678;2023-02-01T13:29:30;7.60;;;2.20;;
43628;SDS011;56545;48.224;11.678;2023-02-01T13:32:08;7.93;;;2.50;;
43628;SDS011;56545;48.224;11.678;2023-02-01T13:37:51;8.18;;;2.38;;
43628;SDS011;56545;48.224;11.678;2023-02-01T13:40:40;7.72;;;2.45;;
43628;SDS011;56545;48.224;11.678;2023-02-01T13:43:28;5.30;;;2.40;;
43628;SDS011;56545;48.224;11.678;2023-02-01T13:45:56;6.10;;;2.30;;
43628;SDS011;56545;48.224;11.678;2023-02-01T13:48:34;7.95;;;2.20;;
43628;SDS011;56545;48.224;11.678;2023-02-01T13:51:06;6.15;;;2.45;;
43628;SDS011;56545;48.224;11.678;2023-02-01T13:53:36;6.15;;;2.78;;
43628;SDS011;56545;48.224;11.678;2023-02-01T13:56:13;6.95;;;3.03;;
43628;SDS011;56545;48.224;11.678;2023-02-01T13:58:44;5.75;;;2.50;;
43628;SDS011;56545;48.224;11.678;2023-02-01T14:16:43;7.57;;;2.63;;
43628;SDS011;56545;48.224;11.678;2023-02-01T14:19:33;6.40;;;2.88;;
43628;SDS011;56545;48.224;11.678;2023-02-01T14:22:00;5.80;;;2.80;;
43628;SDS011;56545;48.224;11.678;2023-02-01T14:24:52;7.50;;;2.50;;
43628;SDS011;56545;48.224;11.678;2023-02-01T14:27:23;5.03;;;2.28;;
43628;SDS011;56545;48.224;11.678;2023-02-01T14:29:56;5.97;;;2.57;;
43628;SDS011;56545;48.224;11.678;2023-02-01T14:32:25;6.63;;;2.50;;
43628;SDS011;56545;48.224;11.678;2023-02-01T14:35:06;7.15;;;2.90;;
43628;SDS011;56545;48.224;11.678;2023-02-01T14:37:43;6.00;;;2.47;;
43628;SDS011;56545;48.224;11.678;2023-02-01T15:01:04;5.53;;;1.83;;
43628;SDS011;56545;48.224;11.678;2023-02-01T15:03:43;6.47;;;1.98;;
43628;SDS011;56545;48.224;11.678;2023-02-01T15:09:07;9.60;;;2.05;;
43628;SDS011;56545;48.224;11.678;2023-02-01T15:14:46;5.47;;;2.10;;
43628;SDS011;56545;48.224;11.678;2023-02-01T15:19:56;6.43;;;2.25;;
43628;SDS011;56545;48.224;11.678;2023-02-01T15:22:23;5.55;;;1.90;;
43628;SDS011;56545;48.224;11.678;2023-02-01T15:24:57;10.10;;;2.22;;
43628;SDS011;56545;48.224;11.678;2023-02-01T15:27:24;7.18;;;2.45;;
43628;SDS011;56545;48.224;11.678;2023-02-01T15:29:52;8.75;;;2.17;;
43628;SDS011;56545;48.224;11.678;2023-02-01T15:32:31;7.05;;;1.80;;
43628;SDS011;56545;48.224;11.678;2023-02-01T15:34:59;8.82;;;2.25;;
43628;SDS011;56545;48.224;11.678;2023-02-01T15:37:27;7.53;;;2.10;;
43628;SDS011;56545;48.224;11.678;2023-02-01T15:42:39;6.55;;;2.10;;
43628;SDS011;56545;48.224;11.678;2023-02-01T15:45:33;4.60;;;2.00;;
43628;SDS011;56545;48.224;11.678;2023-02-01T15:47:59;8.15;;;2.20;;
43628;SDS011;56545;48.224;11.678;2023-02-01T15:50:26;11.35;;;4.68;;
43628;SDS011;56545;48.224;11.678;2023-02-01T15:52:54;8.13;;;2.50;;
43628;SDS011;56545;48.224;11.678;2023-02-01T15:55:25;6.80;;;2.20;;
43628;SDS011;56545;48.224;11.678;2023-02-01T15:58:04;7.20;;;2.30;;
43628;SDS011;56545;48.224;11.678;2023-02-01T16:01:12;7.28;;;2.35;;
43628;SDS011;56545;48.224;11.678;2023-02-01T16:06:05;7.75;;;2.05;;
43628;SDS011;56545;48.224;11.678;2023-02-01T16:08:33;7.07;;;1.90;;
43628;SDS011;56545;48.224;11.678;2023-02-01T16:13:33;6.97;;;2.00;;
43628;SDS011;56545;48.224;11.678;2023-02-01T16:15:59;7.80;;;1.88;;
43628;SDS011;56545;48.224;11.678;2023-02-01T16:18:26;6.53;;;2.25;;
43628;SDS011;56545;48.224;11.678;2023-02-01T16:20:52;6.07;;;2.33;;
43628;SDS011;56545;48.224;11.678;2023-02-01T16:23:18;8.32;;;2.60;;
43628;SDS011;56545;48.224;11.678;2023-02-01T16:25:45;6.85;;;2.05;;
43628;SDS011;56545;48.224;11.678;2023-02-01T16:28:11;8.23;;;1.92;;
43628;SDS011;56545;48.224;11.678;2023-02-01T16:30:37;12.30;;;3.33;;
43628;SDS011;56545;48.224;11.678;2023-02-01T16:33:03;4.68;;;1.65;;
43628;SDS011;56545;48.224;11.678;2023-02-01T16:35:36;7.32;;;1.65;;
43628;SDS011;56545;48.224;11.678;2023-02-01T16:38:09;6.63;;;1.67;;
43628;SDS011;56545;48.224;11.678;2023-02-01T16:40:38;10.75;;;1.92;;
43628;SDS011;56545;48.224;11.678;2023-02-01T16:43:23;9.10;;;1.88;;
43628;SDS011;56545;48.224;11.678;2023-02-01T16:45:51;8.25;;;2.25;;
43628;SDS011;56545;48.224;11.678;2023-02-01T16:50:50;11.68;;;2.90;;
43628;SDS011;56545;48.224;11.678;2023-02-01T16:53:21;8.13;;;2.03;;
43628;SDS011;56545;48.224;11.678;2023-02-01T16:55:48;6.40;;;2.10;;
43628;SDS011;56545;48.224;11.678;2023-02-01T16:58:18;8.95;;;2.40;;
43628;SDS011;56545;48.224;11.678;2023-02-01T17:00:46;7.78;;;2.38;;
43628;SDS011;56545;48.224;11.678;2023-02-01T17:03:12;8.50;;;2.65;;
43628;SDS011;56545;48.224;11.678;2023-02-01T17:05:48;7.50;;;2.13;;
43628;SDS011;56545;48.224;11.678;2023-02-01T17:08:36;6.03;;;1.88;;
43628;SDS011;56545;48.224;11.678;2023-02-01T17:11:06;7.13;;;2.08;;
43628;SDS011;56545;48.224;11.678;2023-02-01T17:13:34;7.32;;;2.10;;
43628;SDS011;56545;48.224;11.678;2023-02-01T17:16:01;7.93;;;2.38;;
43628;SDS011;56545;48.224;11.678;2023-02-01T17:18:31;6.63;;;2.10;;
43628;SDS011;56545;48.224;11.678;2023-02-01T17:20:59;7.55;;;2.15;;
43628;SDS011;56545;48.224;11.678;2023-02-01T17:23:27;8.77;;;3.13;;
43628;SDS011;56545;48.224;11.678;2023-02-01T17:25:54;8.13;;;2.70;;
43628;SDS011;56545;48.224;11.678;2023-02-01T17:28:20;10.75;;;2.10;;
43628;SDS011;56545;48.224;11.678;2023-02-01T17:30:47;6.65;;;2.00;;
43628;SDS011;56545;48.224;11.678;2023-02-01T17:33:26;12.50;;;2.63;;
43628;SDS011;56545;48.224;11.678;2023-02-01T17:35:58;7.35;;;1.92;;
43628;SDS011;56545;48.224;11.678;2023-02-01T17:38:24;7.32;;;2.00;;